sensor_id;sensor_type;location;lat;lon;timestamp;pressure;altitude;pressure_sealevel;temperature;humidity
13934;BME280;7039;52.168;9.866;2024-03-23T11:44:45;99586.59;;;9.86;67.09
13934;BME280;7039;52.168;9.866;2024-03-23T11:53:51;99599.41;;;9.46;67.92
13934;BME280;7039;52.168;9.866;2024-03-23T11:56:42;99603.06;;;9.72;67.31
13934;BME280;7039;52.168;9.866;2024-03-23T12:00:32;99590.41;;;9.95;65.19
13934;BME280;7039;52.168;9.866;2024-03-23T12:03:14;99604.91;;;10.55;64.61
13934;BME280;7039;52.168;9.866;2024-03-23T12:05:48;99608.44;;;10.81;64.51
13934;BME280;7039;52.168;9.866;2024-03-23T12:08:52;99605.94;;;10.79;62.45
13934;BME280;7039;52.168;9.866;2024-03-23T13:35:05;99582.28;;;7.55;78.54
13934;BME280;7039;52.168;9.866;2024-03-23T13:57:19;99604.34;;;8.44;78.07
13934;BME280;7039;52.168;9.866;2024-03-23T14:13:36;99612.75;;;6.99;83.26
13934;BME280;7039;52.168;9.866;2024-03-23T14:50:36;99610.00;;;4.68;95.65
13934;BME280;7039;52.168;9.866;2024-03-23T14:53:09;99615.19;;;4.68;94.95
13934;BME280;7039;52.168;9.866;2024-03-23T14:55:36;99627.66;;;5.21;95.18
13934;BME280;7039;52.168;9.866;2024-03-23T14:58:03;99637.63;;;6.11;92.23
13934;BME280;7039;52.168;9.866;2024-03-23T15:08:08;99628.31;;;6.81;80.83
13934;BME280;7039;52.168;9.866;2024-03-23T15:18:46;99618.03;;;7.15;85.76
13934;BME280;7039;52.168;9.866;2024-03-23T15:23:55;99609.84;;;7.57;79.96
13934;BME280;7039;52.168;9.866;2024-03-23T15:26:42;99609.09;;;7.88;80.17
13934;BME280;7039;52.168;9.866;2024-03-23T15:29:09;99605.34;;;8.26;77.70
13934;BME280;7039;52.168;9.866;2024-03-23T15:35:14;99594.19;;;7.59;78.86
13934;BME280;7039;52.168;9.866;2024-03-23T15:37:50;99581.34;;;6.70;80.91
13934;BME280;7039;52.168;9.866;2024-03-23T15:40:16;99599.41;;;6.89;82.99
13934;BME280;7039;52.168;9.866;2024-03-23T15:42:48;99610.88;;;7.02;83.23
13934;BME280;7039;52.168;9.866;2024-03-23T15:45:14;99592.66;;;6.67;82.14
13934;BME280;7039;52.168;9.866;2024-03-23T15:47:48;99584.63;;;6.37;83.75
13934;BME280;7039;52.168;9.866;2024-03-23T15:50:50;99592.44;;;6.36;84.35
13934;BME280;7039;52.168;9.866;2024-03-23T16:13:24;99612.75;;;5.68;84.37
13934;BME280;7039;52.168;9.866;2024-03-23T16:21:53;99597.53;;;5.80;84.42
13934;BME280;7039;52.168;9.866;2024-03-23T16:34:20;99618.34;;;9.04;72.98
13934;BME280;7039;52.168;9.866;2024-03-23T16:37:02;99590.50;;;7.96;72.80
13934;BME280;7039;52.168;9.866;2024-03-23T16:40:04;99577.41;;;7.48;73.83
13934;BME280;7039;52.168;9.866;2024-03-23T16:42:35;99562.97;;;6.75;77.07
13934;BME280;7039;52.168;9.866;2024-03-23T16:45:20;99551.22;;;6.50;77.97
13934;BME280;7039;52.168;9.866;2024-03-23T16:51:21;99546.19;;;6.28;81.66
13934;BME280;7039;52.168;9.866;2024-03-23T16:54:00;99540.13;;;6.10;81.66
13934;BME280;7039;52.168;9.866;2024-03-23T17:02:27;99560.53;;;7.06;78.23
13934;BME280;7039;52.168;9.866;2024-03-23T19:02:25;99577.00;;;4.54;100.00
13934;BME280;7039;52.168;9.866;2024-03-23T19:04:57;99568.66;;;4.48;100.00
13934;BME280;7039;52.168;9.866;2024-03-23T19:14:09;99563.97;;;4.78;100.00
13934;BME280;7039;52.168;9.866;2024-03-23T19:16:39;99548.16;;;4.43;100.00
13934;BME280;7039;52.168;9.866;2024-03-23T19:19:05;99546.06;;;4.53;100.00
13934;BME280;7039;52.168;9.866;2024-03-23T19:21:51;99554.34;;;4.61;100.00
13934;BME280;7039;52.168;9.866;2024-03-23T19:24:20;99545.44;;;4.68;99.65
13934;BME280;7039;52.168;9.866;2024-03-23T19:26:51;99539.50;;;4.66;99.76
13934;BME280;7039;52.168;9.866;2024-03-23T19:29:20;99543.34;;;4.56;100.00
13934;BME280;7039;52.168;9.866;2024-03-23T19:31:55;99540.53;;;4.40;100.00
13934;BME280;7039;52.168;9.866;2024-03-23T19:34:32;99536.47;;;4.34;100.00
13934;BME280;7039;52.168;9.866;2024-03-23T19:40:14;99537.16;;;4.38;99.27
13934;BME280;7039;52.168;9.866;2024-03-23T19:42:40;99547.31;;;4.43;99.27
13934;BME280;7039;52.168;9.866;2024-03-23T19:45:11;99546.47;;;4.42;99.16
13934;BME280;7039;52.168;9.866;2024-03-23T19:51:55;99532.44;;;4.27;99.41
13934;BME280;7039;52.168;9.866;2024-03-23T19:54:23;99524.63;;;4.07;99.79
13934;BME280;7039;52.168;9.866;2024-03-23T19:56:56;99535.31;;;4.19;100.00
13934;BME280;7039;52.168;9.866;2024-03-23T19:59:51;99520.31;;;4.07;99.94
13934;BME280;7039;52.168;9.866;2024-03-23T20:05:44;99528.59;;;3.93;99.65
13934;BME280;7039;52.168;9.866;2024-03-23T20:08:13;99527.41;;;4.02;99.67
13934;BME280;7039;52.168;9.866;2024-03-23T20:10:46;99533.16;;;4.09;98.73
13934;BME280;7039;52.168;9.866;2024-03-23T20:16:24;99517.53;;;3.90;99.42
13934;BME280;7039;52.168;9.866;2024-03-23T20:19:02;99520.38;;;4.06;98.91
13934;BME280;7039;52.168;9.866;2024-03-23T20:21:33;99511.41;;;3.92;98.83
13934;BME280;7039;52.168;9.866;2024-03-23T20:24:01;99509.44;;;3.99;98.53
13934;BME280;7039;52.168;9.866;2024-03-23T20:26:49;99506.84;;;3.77;98.94
13934;BME280;7039;52.168;9.866;2024-03-23T20:32:25;99509.78;;;3.90;98.07
13934;BME280;7039;52.168;9.866;2024-03-23T20:34:52;99505.91;;;3.80;97.88
13934;BME280;7039;52.168;9.866;2024-03-23T20:37:25;99489.69;;;3.76;98.56
13934;BME280;7039;52.168;9.866;2024-03-23T20:40:02;99498.81;;;3.85;98.21
13934;BME280;7039;52.168;9.866;2024-03-23T20:42:50;99501.97;;;3.69;98.47
13934;BME280;7039;52.168;9.866;2024-03-23T20:48:26;99513.38;;;3.86;97.16
13934;BME280;7039;52.168;9.866;2024-03-23T20:51:12;99512.84;;;3.78;96.97
13934;BME280;7039;52.168;9.866;2024-03-23T20:53:38;99514.25;;;3.86;96.44
13934;BME280;7039;52.168;9.866;2024-03-23T20:56:07;99525.69;;;4.01;96.84
13934;BME280;7039;52.168;9.866;2024-03-23T20:58:34;99514.50;;;4.02;96.12
13934;BME280;7039;52.168;9.866;2024-03-23T21:01:04;99524.75;;;4.04;96.25
13934;BME280;7039;52.168;9.866;2024-03-23T21:03:31;99506.06;;;3.97;94.90
13934;BME280;7039;52.168;9.866;2024-03-23T21:05:59;99507.94;;;3.93;95.45
13934;BME280;7039;52.168;9.866;2024-03-23T21:08:25;99504.63;;;3.90;95.46
13934;BME280;7039;52.168;9.866;2024-03-23T21:10:55;99506.34;;;3.91;94.52
13934;BME280;7039;52.168;9.866;2024-03-23T21:13:23;99508.22;;;3.86;94.38
13934;BME280;7039;52.168;9.866;2024-03-23T21:15:54;99507.16;;;3.91;94.52
13934;BME280;7039;52.168;9.866;2024-03-23T21:18:26;99502.78;;;3.93;94.21
13934;BME280;7039;52.168;9.866;2024-03-23T21:21:21;99501.09;;;3.92;94.09
13934;BME280;7039;52.168;9.866;2024-03-23T21:23:50;99498.41;;;3.95;94.17
13934;BME280;7039;52.168;9.866;2024-03-23T21:26:17;99487.06;;;3.78;94.28
13934;BME280;7039;52.168;9.866;2024-03-23T21:28:53;99487.75;;;3.81;94.27
